HomeShort term forecast

Short term forecast

Graphical weather forecast for the next 48 hours for Montreal:
Short term forecast
This weather forecast is automatically refreshed every 3 hours.

Hourly Experimental Forecast for the next 48 hours ®

Overall summary: Possible light rain tomorrow morning and afternoon.

 Date & Hour   Temp   Feel   Baro   Hum   Speed & Bearing   Wind Gust   Precip.%   Precip.   Visibility   Cloud cover   Conditions 
 20/08/2019 - 13:00  26.5°C  26.5°C  1018.0 hPa  42%  13.8 km/h   18.0 km/h  0%  --  16.1km  0%  Clear 
 20/08/2019 - 14:00  27.6°C  27.6°C  1017.7 hPa  38%  14.1 km/h   18.8 km/h  0%  --  16.1km  0%  Clear 
 20/08/2019 - 15:00  28.7°C  28.7°C  1016.7 hPa  35%  13.9 km/h   20.0 km/h  0%  --  16.1km  0%  Clear 
 20/08/2019 - 16:00  29.5°C  29.5°C  1017.0 hPa  32%  14.1 km/h   21.5 km/h  0%  --  16.1km  0%  Clear 
 20/08/2019 - 17:00  29.4°C  29.4°C  1016.9 hPa  32%  13.4 km/h   21.6 km/h  0%  --  16.1km  0%  Clear 
 20/08/2019 - 18:00  28.8°C  28.8°C  1016.4 hPa  33%  11.4 km/h   19.6 km/h  0%  --  16.1km  0%  Clear 
 20/08/2019 - 19:00  27.7°C  27.7°C  1016.6 hPa  35%  9.5 km/h   18.0 km/h  0%  --  16.1km  0%  Clear 
 20/08/2019 - 20:00  26.1°C  26.1°C  1015.5 hPa  41%  8.2 km/h   16.6 km/h  0%  --  16.1km  3%  Clear 
 20/08/2019 - 21:00  24.4°C  24.4°C  1015.5 hPa  49%  7.9 km/h   18.2 km/h  0%  --  16.1km  22%  Partly Cloudy 
 20/08/2019 - 22:00  23.1°C  23.1°C  1016.1 hPa  54%  8.1 km/h   19.3 km/h  0%  --  16.1km  6%  Clear 
 20/08/2019 - 23:00  22.2°C  22.2°C  1016.1 hPa  57%  8.4 km/h   19.1 km/h  0%  --  16.1km  25%  Partly Cloudy 
 21/08/2019 - 00:00  21.4°C  21.4°C  1015.9 hPa  60%  7.7 km/h   18.1 km/h  0%  --  16.1km  7%  Clear 
 21/08/2019 - 01:00  20.7°C  20.7°C  1015.7 hPa  62%  6.6 km/h   14.4 km/h  0%  --  16.1km  6%  Clear 
 21/08/2019 - 02:00  19.4°C  19.4°C  1015.5 hPa  64%  5.4 km/h   8.1 km/h  0%  --  16.1km  5%  Clear 
 21/08/2019 - 03:00  18.8°C  18.8°C  1015.0 hPa  66%  4.9 km/h   6.2 km/h  0%  --  16.1km  11%  Clear 
 21/08/2019 - 04:00  18.3°C  18.3°C  1014.2 hPa  68%  4.8 km/h   5.2 km/h  0%  --  16.1km  20%  Partly Cloudy 
 21/08/2019 - 05:00  18.0°C  18.0°C  1013.9 hPa  71%  4.6 km/h   5.0 km/h  0%  --  16.1km  30%  Partly Cloudy 
 21/08/2019 - 06:00  18.4°C  18.4°C  1013.9 hPa  72%  4.1 km/h   5.6 km/h  5%  0.02 mm/h  16.1km  45%  Partly Cloudy 
 21/08/2019 - 07:00  19.2°C  19.2°C  1014.2 hPa  72%  3.6 km/h   7.1 km/h  11%  0.11 mm/h  16.1km  61%  Mostly Cloudy 
 21/08/2019 - 08:00  20.0°C  20.0°C  1014.0 hPa  72%  3.7 km/h   8.3 km/h  20%  0.25 mm/h  16.1km  71%  Mostly Cloudy 
 21/08/2019 - 09:00  21.3°C  21.3°C  1013.6 hPa  70%  4.7 km/h   8.6 km/h  24%  0.41 mm/h  16.1km  69%  Mostly Cloudy 
 21/08/2019 - 10:00  23.0°C  23.2°C  1013.0 hPa  69%  6.2 km/h   8.7 km/h  29%  0.60 mm/h  16.1km  62%  Mostly Cloudy 
 21/08/2019 - 11:00  24.6°C  24.9°C  1012.3 hPa  67%  8.0 km/h   9.8 km/h  31%  0.74 mm/h  16.1km  55%  Possible Light Rain 
 21/08/2019 - 12:00  26.0°C  26.4°C  1011.5 hPa  66%  10.4 km/h   13.1 km/h  35%  0.74 mm/h  16.1km  53%  Possible Light Rain 
 21/08/2019 - 13:00  27.6°C  29.3°C  1010.7 hPa  64%  13.3 km/h   17.5 km/h  29%  0.68 mm/h  16.1km  52%  Mostly Cloudy 
 21/08/2019 - 14:00  28.6°C  30.9°C  1009.8 hPa  64%  15.5 km/h   20.6 km/h  23%  0.59 mm/h  16.1km  53%  Mostly Cloudy 
 21/08/2019 - 15:00  29.1°C  31.7°C  1008.8 hPa  63%  16.3 km/h   20.9 km/h  23%  0.49 mm/h  16.1km  60%  Mostly Cloudy 
 21/08/2019 - 16:00  29.1°C  31.6°C  1007.8 hPa  63%  16.4 km/h   20.0 km/h  25%  0.71 mm/h  16.1km  71%  Mostly Cloudy 
 21/08/2019 - 17:00  28.4°C  30.6°C  1006.9 hPa  64%  16.3 km/h   20.0 km/h  31%  1.07 mm/h  16.1km  79%  Possible Light Rain 
 21/08/2019 - 18:00  27.3°C  29.1°C  1006.4 hPa  67%  16.2 km/h   21.7 km/h  39%  1.16 mm/h  16.1km  79%  Possible Light Rain 
 21/08/2019 - 19:00  25.7°C  26.3°C  1006.1 hPa  73%  15.9 km/h   24.4 km/h  40%  1.22 mm/h  13.7km  78%  Possible Light Rain 
 21/08/2019 - 20:00  24.3°C  24.8°C  1005.6 hPa  79%  15.5 km/h   28.2 km/h  40%  1.42 mm/h  9.2km  76%  Possible Light Rain 
 21/08/2019 - 21:00  23.6°C  24.1°C  1004.9 hPa  81%  15.0 km/h   33.7 km/h  46%  1.83 mm/h  6.5km  78%  Possible Light Rain 
 21/08/2019 - 22:00  23.1°C  23.6°C  1004.1 hPa  83%  14.5 km/h   40.1 km/h  54%  2.38 mm/h  5.1km  81%  Possible Light Rain 
 21/08/2019 - 23:00  22.6°C  23.2°C  1003.7 hPa  86%  14.8 km/h   44.6 km/h  58%  2.45 mm/h  6.1km  82%  Possible Light Rain 
 22/08/2019 - 00:00  22.2°C  22.7°C  1003.7 hPa  87%  16.4 km/h   46.3 km/h  54%  1.51 mm/h  11.2km  73%  Possible Light Rain 
 22/08/2019 - 01:00  21.8°C  22.3°C  1004.2 hPa  88%  18.7 km/h   46.2 km/h  33%  0.57 mm/h  16.1km  60%  Possible Light Rain 
 22/08/2019 - 02:00  21.4°C  21.9°C  1004.7 hPa  88%  20.4 km/h   45.2 km/h  18%  0.26 mm/h  16.1km  51%  Mostly Cloudy 
 22/08/2019 - 03:00  21.1°C  21.6°C  1005.1 hPa  89%  20.7 km/h   42.9 km/h  11%  0.13 mm/h  16.1km  55%  Mostly Cloudy 
 22/08/2019 - 04:00  20.5°C  20.9°C  1005.4 hPa  89%  20.5 km/h   39.7 km/h  6%  0.04 mm/h  16.1km  60%  Mostly Cloudy 
 22/08/2019 - 05:00  19.9°C  20.3°C  1005.4 hPa  88%  20.5 km/h   37.3 km/h  4%  0.01 mm/h  16.1km  63%  Mostly Cloudy 
 22/08/2019 - 06:00  18.9°C  19.2°C  1006.4 hPa  89%  20.8 km/h   36.3 km/h  4%  0.02 mm/h  16.1km  65%  Mostly Cloudy 
 22/08/2019 - 07:00  18.4°C  18.5°C  1007.8 hPa  87%  21.2 km/h   36.0 km/h  5%  0.04 mm/h  16.1km  66%  Mostly Cloudy 
 22/08/2019 - 08:00  18.2°C  18.3°C  1008.6 hPa  84%  21.7 km/h   35.5 km/h  5%  0.06 mm/h  16.1km  64%  Mostly Cloudy 
 22/08/2019 - 09:00  18.4°C  18.4°C  1008.9 hPa  80%  22.2 km/h   34.7 km/h  5%  0.04 mm/h  16.1km  55%  Mostly Cloudy 
 22/08/2019 - 10:00  19.0°C  19.0°C  1008.9 hPa  73%  22.4 km/h   33.9 km/h  4%  0.02 mm/h  16.1km  42%  Partly Cloudy 
 22/08/2019 - 11:00  19.7°C  19.7°C  1009.1 hPa  68%  22.8 km/h   33.1 km/h  3%  0.02 mm/h  16.1km  34%  Partly Cloudy 
 22/08/2019 - 12:00  20.3°C  20.3°C  1009.5 hPa  63%  23.5 km/h   32.3 km/h  3%  0.02 mm/h  16.1km  33%  Partly Cloudy 
Test

 

Past weather and reports

Past weatherFind in this section the past weather conditions, weather archive, graphics, reports and statistics.

Current conditions

Current weather condition for MontrealAll you need to know about the current weather conditions for Montreal. Weather data is updated every 10 minutes.

Weather forecast

Current Montreal weatherSince 2004, celinium.com website has provided accurate weather forecast for Montreal's island.